Time;durP1;ratioP1;P1;durP2;ratioP2;P2;SDS_P1;SDS_P2;PMS_P1;PMS_P2;Temp;Humidity;BMP_temperature;BMP_pressure;BME280_temperature;BME280_humidity;BME280_pressure;Samples;Min_cycle;Max_cycle;Signal;HPM_P1;HPM_P2
2022/04/01 00:02:26;;;;;;;10.63;1.40;;;;;;;;;;5039846;28;20152;-68
2022/04/01 00:04:53;;;;;;;6.03;1.33;;;;;;;;;;5044924;28;20061;-69
2022/04/01 00:07:21;;;;;;;4.78;1.00;;;;;;;;;;5042223;28;20049;-69
2022/04/01 00:09:48;;;;;;;3.17;0.85;;;;;;;;;;5042159;28;20064;-69
2022/04/01 00:12:15;;;;;;;5.88;1.45;;;;;;;;;;5042477;28;20045;-69
2022/04/01 00:14:42;;;;;;;6.13;1.20;;;;;;;;;;5043400;28;20613;-69
2022/04/01 00:17:10;;;;;;;3.35;1.30;;;;;;;;;;5043531;28;20056;-68
2022/04/01 00:19:38;;;;;;;5.43;1.10;;;;;;;;;;5035495;28;20053;-68
2022/04/01 00:22:05;;;;;;;5.00;0.93;;;;;;;;;;5041973;28;20053;-68
2022/04/01 00:24:33;;;;;;;7.30;1.20;;;;;;;;;;5044177;28;20053;-68
2022/04/01 00:27:00;;;;;;;5.25;1.27;;;;;;;;;;5042957;28;20071;-68
2022/04/01 00:29:27;;;;;;;3.97;1.10;;;;;;;;;;5042722;28;20048;-68
2022/04/01 00:32:00;;;;;;;5.25;1.10;;;;;;;;;;5047064;28;20407;-68
2022/04/01 00:34:27;;;;;;;7.18;1.17;;;;;;;;;;5042140;28;20135;-68
2022/04/01 00:36:56;;;;;;;5.55;1.00;;;;;;;;;;5044849;28;20053;-69
2022/04/01 00:39:24;;;;;;;7.18;1.10;;;;;;;;;;5048586;28;20130;-69
2022/04/01 00:41:52;;;;;;;6.93;1.35;;;;;;;;;;5049610;28;20091;-68
2022/04/01 00:44:20;;;;;;;4.30;1.10;;;;;;;;;;5047435;28;20064;-69
2022/04/01 00:46:48;;;;;;;7.20;1.40;;;;;;;;;;5047361;28;20045;-68
2022/04/01 00:49:15;;;;;;;9.98;1.85;;;;;;;;;;5049283;28;20110;-68
2022/04/01 00:51:43;;;;;;;3.33;1.02;;;;;;;;;;5050403;28;20516;-68
2022/04/01 00:54:12;;;;;;;5.70;1.20;;;;;;;;;;5043691;28;20044;-69
2022/04/01 00:56:40;;;;;;;5.47;1.30;;;;;;;;;;5044360;28;20069;-68
2022/04/01 00:59:08;;;;;;;3.53;1.08;;;;;;;;;;5046898;28;20506;-69
2022/04/01 01:01:36;;;;;;;7.57;1.63;;;;;;;;;;5048029;28;20053;-69
2022/04/01 01:04:04;;;;;;;8.45;2.15;;;;;;;;;;5047860;28;20053;-69
2022/04/01 01:06:32;;;;;;;7.30;1.33;;;;;;;;;;5046492;28;20107;-68
2022/04/01 01:09:00;;;;;;;6.45;1.30;;;;;;;;;;5046113;28;20136;-69
2022/04/01 01:11:29;;;;;;;10.00;3.05;;;;;;;;;;5051056;28;20107;-69
2022/04/01 01:13:56;;;;;;;7.57;1.60;;;;;;;;;;5044864;28;20061;-69
2022/04/01 01:16:23;;;;;;;4.60;1.40;;;;;;;;;;5047877;28;20142;-69
2022/04/01 01:19:00;;;;;;;6.53;1.50;;;;;;;;;;5039137;28;20495;-69
2022/04/01 01:21:27;;;;;;;7.05;1.38;;;;;;;;;;5034719;28;20164;-69
2022/04/01 01:23:57;;;;;;;5.75;1.35;;;;;;;;;;5038702;28;20496;-69
2022/04/01 01:26:26;;;;;;;7.50;1.40;;;;;;;;;;5040150;28;20053;-69
2022/04/01 01:28:54;;;;;;;5.13;1.13;;;;;;;;;;5037895;28;20073;-69
2022/04/01 01:31:22;;;;;;;6.47;1.58;;;;;;;;;;5038268;28;20118;-68
2022/04/01 01:33:50;;;;;;;11.27;1.73;;;;;;;;;;5041564;28;20115;-69
2022/04/01 01:36:17;;;;;;;6.20;1.40;;;;;;;;;;5047095;28;20440;-69
2022/04/01 01:38:45;;;;;;;5.57;1.35;;;;;;;;;;5045179;28;20264;-69
2022/04/01 01:41:12;;;;;;;6.25;1.40;;;;;;;;;;5046364;28;20068;-69
2022/04/01 01:43:41;;;;;;;5.70;1.33;;;;;;;;;;5049510;28;20094;-69
2022/04/01 01:46:09;;;;;;;3.72;1.38;;;;;;;;;;5049402;28;20080;-69
2022/04/01 01:48:36;;;;;;;5.28;1.20;;;;;;;;;;5046271;28;20519;-69
2022/04/01 01:56:33;;;;;;;10.80;1.40;;;;;;;;;;5045763;28;20114;-69
2022/04/01 01:59:02;;;;;;;7.85;1.33;;;;;;;;;;5044325;28;20053;-69
2022/04/01 02:01:29;;;;;;;10.77;1.50;;;;;;;;;;5044769;28;20053;-69
2022/04/01 02:03:56;;;;;;;8.98;1.25;;;;;;;;;;5044171;28;20053;-69
2022/04/01 02:06:24;;;;;;;5.47;1.50;;;;;;;;;;5044568;28;20500;-69
2022/04/01 02:08:53;;;;;;;5.18;1.55;;;;;;;;;;5046277;28;20052;-68
2022/04/01 02:11:21;;;;;;;7.38;1.50;;;;;;;;;;5047924;28;20076;-69
2022/04/01 02:13:48;;;;;;;5.35;1.33;;;;;;;;;;5043188;28;20122;-69
2022/04/01 02:16:17;;;;;;;5.72;1.20;;;;;;;;;;5043578;28;20057;-69
2022/04/01 02:18:44;;;;;;;7.82;1.30;;;;;;;;;;5044613;28;20099;-69
2022/04/01 02:21:11;;;;;;;6.65;1.70;;;;;;;;;;5040927;28;20056;-69
2022/04/01 02:23:39;;;;;;;6.80;1.55;;;;;;;;;;5042910;28;20057;-69
2022/04/01 02:26:07;;;;;;;3.92;1.20;;;;;;;;;;5048746;28;20050;-69
2022/04/01 02:28:34;;;;;;;5.72;0.98;;;;;;;;;;5044149;28;20099;-69
2022/04/01 02:31:03;;;;;;;4.15;1.15;;;;;;;;;;5041832;28;20049;-69
2022/04/01 02:33:32;;;;;;;5.90;1.60;;;;;;;;;;5037509;28;20052;-69
2022/04/01 02:35:59;;;;;;;5.70;1.35;;;;;;;;;;5038990;28;20057;-70
2022/04/01 02:38:27;;;;;;;8.90;1.60;;;;;;;;;;5044787;28;20045;-69
2022/04/01 02:40:54;;;;;;;11.25;1.33;;;;;;;;;;5040684;28;20065;-69
2022/04/01 02:43:21;;;;;;;10.82;1.83;;;;;;;;;;5044778;28;20060;-69
2022/04/01 02:45:49;;;;;;;9.50;1.50;;;;;;;;;;5040777;28;20460;-69
2022/04/01 02:48:17;;;;;;;9.80;1.50;;;;;;;;;;5045922;28;20056;-69
2022/04/01 02:50:46;;;;;;;8.00;1.77;;;;;;;;;;5035612;28;20400;-69
2022/04/01 02:53:14;;;;;;;4.95;1.30;;;;;;;;;;5046793;28;20130;-70
2022/04/01 02:55:41;;;;;;;12.77;1.35;;;;;;;;;;5042310;28;20589;-69
2022/04/01 02:58:09;;;;;;;6.10;1.25;;;;;;;;;;5047846;28;20048;-69
2022/04/01 03:00:37;;;;;;;6.50;1.40;;;;;;;;;;5038511;28;20147;-69
2022/04/01 03:03:06;;;;;;;7.57;1.20;;;;;;;;;;5048393;28;20047;-69
2022/04/01 03:05:34;;;;;;;7.68;1.27;;;;;;;;;;5041386;28;20056;-69
2022/04/01 03:08:04;;;;;;;8.80;1.20;;;;;;;;;;5049308;28;20048;-69
2022/04/01 03:10:32;;;;;;;11.23;1.75;;;;;;;;;;5048286;28;20051;-69
2022/04/01 03:13:00;;;;;;;6.90;1.25;;;;;;;;;;5047858;28;20068;-69
2022/04/01 03:15:28;;;;;;;6.07;1.23;;;;;;;;;;5053881;28;20052;-69
2022/04/01 03:17:56;;;;;;;6.90;1.30;;;;;;;;;;5051666;28;20470;-69
2022/04/01 03:20:23;;;;;;;7.03;1.30;;;;;;;;;;5050621;28;20135;-69
2022/04/01 03:22:51;;;;;;;4.57;1.10;;;;;;;;;;5047022;28;20166;-69
2022/04/01 03:25:20;;;;;;;9.13;1.63;;;;;;;;;;5048376;28;20199;-69
2022/04/01 03:27:48;;;;;;;7.78;1.20;;;;;;;;;;5048197;28;20646;-69
2022/04/01 03:30:16;;;;;;;5.90;1.25;;;;;;;;;;5046988;28;20059;-69
2022/04/01 03:32:43;;;;;;;4.55;1.15;;;;;;;;;;5046355;28;20179;-69
2022/04/01 03:35:13;;;;;;;6.50;1.35;;;;;;;;;;5050997;28;20509;-70
2022/04/01 03:37:40;;;;;;;3.90;1.10;;;;;;;;;;5047607;28;20084;-69
2022/04/01 03:40:08;;;;;;;7.25;1.15;;;;;;;;;;5047925;28;20044;-69
2022/04/01 03:42:37;;;;;;;7.90;1.17;;;;;;;;;;5047368;28;20048;-69
2022/04/01 03:45:06;;;;;;;7.45;1.00;;;;;;;;;;5051023;28;20060;-68
2022/04/01 03:47:39;;;;;;;12.00;1.45;;;;;;;;;;5050541;28;20905;-69
2022/04/01 03:50:07;;;;;;;11.00;1.65;;;;;;;;;;5049564;28;20044;-69
2022/04/01 03:52:35;;;;;;;12.18;1.40;;;;;;;;;;5053789;28;20129;-69
2022/04/01 03:55:04;;;;;;;8.20;1.30;;;;;;;;;;5046556;28;20052;-69
2022/04/01 03:57:35;;;;;;;7.15;1.40;;;;;;;;;;5045153;28;20106;-69
2022/04/01 04:00:05;;;;;;;6.28;1.33;;;;;;;;;;5048764;28;20051;-69
2022/04/01 04:02:34;;;;;;;5.60;0.88;;;;;;;;;;5046721;28;20097;-68
2022/04/01 04:05:01;;;;;;;11.85;1.70;;;;;;;;;;5048188;28;20086;-68
2022/04/01 04:07:29;;;;;;;7.15;1.35;;;;;;;;;;5048031;28;20515;-69
2022/04/01 04:09:56;;;;;;;8.82;1.70;;;;;;;;;;5047194;28;20110;-68
2022/04/01 04:12:23;;;;;;;8.13;1.50;;;;;;;;;;5048913;28;20052;-70
2022/04/01 04:14:53;;;;;;;9.02;1.58;;;;;;;;;;5046069;28;20075;-69
2022/04/01 04:17:26;;;;;;;6.57;1.50;;;;;;;;;;5047958;28;20056;-69
2022/04/01 04:19:53;;;;;;;;;;;;;;;;;;5051051;28;20056;-69
2022/04/01 04:22:23;;;;;;;10.48;1.90;;;;;;;;;;5064768;28;19947;-69
2022/04/01 04:24:55;;;;;;;9.10;1.80;;;;;;;;;;5043728;28;20118;-69
2022/04/01 04:27:26;;;;;;;9.07;1.88;;;;;;;;;;5047165;28;20049;-69
2022/04/01 04:29:58;;;;;;;7.10;1.85;;;;;;;;;;5049569;28;20048;-69
2022/04/01 04:32:29;;;;;;;8.88;1.73;;;;;;;;;;5049104;28;20084;-69
2022/04/01 04:34:58;;;;;;;11.05;2.72;;;;;;;;;;5049929;28;20114;-69
2022/04/01 04:37:28;;;;;;;4.55;1.35;;;;;;;;;;5051948;28;20063;-69
2022/04/01 04:39:55;;;;;;;6.65;1.90;;;;;;;;;;5045587;28;20582;-69
2022/04/01 04:42:22;;;;;;;11.40;1.73;;;;;;;;;;5055830;28;20134;-69
2022/04/01 04:44:50;;;;;;;5.75;1.92;;;;;;;;;;5046904;28;20389;-69
2022/04/01 04:47:19;;;;;;;7.00;1.70;;;;;;;;;;5049112;28;20473;-69
2022/04/01 04:49:48;;;;;;;11.23;2.15;;;;;;;;;;5047934;28;20796;-69
2022/04/01 04:52:17;;;;;;;9.13;1.60;;;;;;;;;;5050434;28;20143;-70
2022/04/01 04:54:45;;;;;;;10.27;1.83;;;;;;;;;;5048834;28;20110;-69
2022/04/01 04:57:13;;;;;;;7.10;1.58;;;;;;;;;;5046274;28;20198;-69
2022/04/01 04:59:42;;;;;;;7.55;1.63;;;;;;;;;;5035374;28;20886;-69
2022/04/01 05:02:12;;;;;;;8.52;1.83;;;;;;;;;;5045846;28;20057;-69
2022/04/01 05:04:45;;;;;;;11.07;1.80;;;;;;;;;;5046220;28;20059;-69
2022/04/01 05:07:21;;;;;;;8.05;1.50;;;;;;;;;;5039820;28;20178;-69
2022/04/01 05:09:54;;;;;;;12.05;2.10;;;;;;;;;;5037495;28;20061;-69
2022/04/01 05:12:26;;;;;;;7.45;1.77;;;;;;;;;;5035362;28;20083;-69
2022/04/01 05:15:04;;;;;;;12.73;1.70;;;;;;;;;;5044302;28;20057;-69
2022/04/01 05:17:35;;;;;;;8.63;1.67;;;;;;;;;;5036178;28;20843;-69
2022/04/01 05:20:05;;;;;;;6.30;1.55;;;;;;;;;;5041586;28;20045;-69
2022/04/01 05:22:37;;;;;;;5.95;1.60;;;;;;;;;;5048733;28;20052;-69
2022/04/01 05:25:05;;;;;;;3.97;1.48;;;;;;;;;;5056843;28;20127;-69
2022/04/01 05:27:40;;;;;;;7.63;1.67;;;;;;;;;;5052780;28;20048;-69
2022/04/01 05:30:13;;;;;;;9.57;1.58;;;;;;;;;;5056368;28;20048;-69
2022/04/01 05:32:41;;;;;;;7.18;2.00;;;;;;;;;;5039428;28;20053;-69
2022/04/01 05:35:09;;;;;;;8.18;1.63;;;;;;;;;;5044279;28;20052;-69
2022/04/01 05:37:38;;;;;;;7.93;1.77;;;;;;;;;;5041182;28;20049;-69
2022/04/01 05:40:07;;;;;;;7.72;1.75;;;;;;;;;;5041269;28;20044;-69
2022/04/01 05:42:34;;;;;;;6.70;1.50;;;;;;;;;;5043860;28;20076;-69
2022/04/01 05:45:02;;;;;;;11.35;1.50;;;;;;;;;;5046233;28;20059;-70
2022/04/01 05:47:31;;;;;;;9.00;1.80;;;;;;;;;;5044844;28;20055;-70
2022/04/01 05:49:59;;;;;;;6.28;2.08;;;;;;;;;;5049936;28;20071;-69
2022/04/01 05:52:27;;;;;;;8.63;1.52;;;;;;;;;;5051700;28;20052;-69
2022/04/01 05:54:56;;;;;;;9.73;1.95;;;;;;;;;;5052230;28;20108;-69
2022/04/01 05:57:23;;;;;;;7.95;1.70;;;;;;;;;;5053084;28;20044;-69
2022/04/01 05:59:50;;;;;;;5.80;1.70;;;;;;;;;;5047962;28;20414;-70
2022/04/01 06:02:28;;;;;;;5.65;1.42;;;;;;;;;;5053499;28;20048;-70
2022/04/01 06:05:16;;;;;;;10.93;1.85;;;;;;;;;;5052567;28;20053;-70
2022/04/01 06:07:49;;;;;;;8.07;1.52;;;;;;;;;;5052278;28;20064;-69
2022/04/01 06:10:21;;;;;;;6.32;1.42;;;;;;;;;;5051521;28;20106;-70
2022/04/01 06:12:54;;;;;;;5.95;1.50;;;;;;;;;;5054359;28;20056;-69
2022/04/01 06:15:28;;;;;;;9.43;1.70;;;;;;;;;;5048807;28;20079;-69
2022/04/01 06:17:55;;;;;;;;;;;;;;;;;;5055482;28;20310;-69
2022/04/01 06:20:22;;;;;;;11.18;1.38;;;;;;;;;;5051826;28;20462;-69
2022/04/01 06:22:51;;;;;;;7.55;1.38;;;;;;;;;;5052438;28;20056;-69
2022/04/01 06:25:22;;;;;;;5.93;1.33;;;;;;;;;;5054715;28;20052;-70
2022/04/01 06:27:50;;;;;;;8.65;1.48;;;;;;;;;;5052772;28;20072;-70
2022/04/01 06:30:18;;;;;;;9.40;1.40;;;;;;;;;;5045778;28;20048;-70
2022/04/01 06:32:50;;;;;;;4.32;1.27;;;;;;;;;;5040819;28;20100;-69
2022/04/01 06:35:19;;;;;;;9.35;1.40;;;;;;;;;;5043365;28;20470;-69
2022/04/01 06:37:51;;;;;;;7.97;1.30;;;;;;;;;;5042864;28;20067;-70
2022/04/01 06:40:22;;;;;;;4.93;1.25;;;;;;;;;;5038241;28;20044;-69
2022/04/01 06:42:51;;;;;;;7.60;1.38;;;;;;;;;;5041955;28;20407;-69
2022/04/01 06:45:19;;;;;;;7.82;1.30;;;;;;;;;;5042705;28;20053;-69
2022/04/01 06:47:46;;;;;;;6.20;1.20;;;;;;;;;;5039765;28;20056;-71
2022/04/01 06:50:16;;;;;;;7.65;1.40;;;;;;;;;;5038752;28;20040;-70
2022/04/01 06:52:43;;;;;;;7.63;1.30;;;;;;;;;;5041175;28;20137;-70
2022/04/01 06:55:11;;;;;;;9.07;1.50;;;;;;;;;;5048655;28;20494;-70
2022/04/01 06:57:40;;;;;;;17.25;2.75;;;;;;;;;;5048704;28;20554;-70
2022/04/01 07:00:08;;;;;;;5.68;1.38;;;;;;;;;;5049182;28;20056;-70
2022/04/01 07:02:36;;;;;;;6.25;1.27;;;;;;;;;;5047655;28;20486;-70
2022/04/01 07:05:05;;;;;;;5.55;1.35;;;;;;;;;;5049818;28;20065;-70
2022/04/01 07:07:32;;;;;;;8.48;1.50;;;;;;;;;;5050474;28;20049;-70
2022/04/01 07:10:00;;;;;;;7.53;1.33;;;;;;;;;;5052766;28;20048;-71
2022/04/01 07:12:27;;;;;;;5.75;1.33;;;;;;;;;;5048269;28;20048;-70
2022/04/01 07:14:55;;;;;;;8.85;1.42;;;;;;;;;;5051025;28;20098;-70
2022/04/01 07:17:23;;;;;;;10.90;1.48;;;;;;;;;;5050394;28;20052;-70
2022/04/01 07:19:50;;;;;;;8.15;1.45;;;;;;;;;;5046699;28;20131;-70
2022/04/01 07:22:17;;;;;;;7.28;1.35;;;;;;;;;;5047366;28;20057;-70
2022/04/01 07:24:44;;;;;;;6.38;1.45;;;;;;;;;;5042302;28;20075;-71
2022/04/01 07:27:11;;;;;;;10.48;1.50;;;;;;;;;;5040073;28;20057;-70
2022/04/01 07:29:39;;;;;;;6.57;1.25;;;;;;;;;;5049653;28;20048;-71
2022/04/01 07:34:53;;;;;;;7.75;1.50;;;;;;;;;;5050804;28;20513;-71
2022/04/01 07:37:23;;;;;;;6.18;1.73;;;;;;;;;;5049886;28;20060;-70
2022/04/01 07:39:51;;;;;;;4.93;1.17;;;;;;;;;;5046626;28;20055;-70
2022/04/01 07:42:20;;;;;;;7.05;1.40;;;;;;;;;;5050846;28;20053;-71
2022/04/01 07:44:47;;;;;;;9.13;1.42;;;;;;;;;;5042596;28;20128;-70
2022/04/01 07:47:18;;;;;;;6.18;1.25;;;;;;;;;;5043622;28;20574;-70
2022/04/01 07:49:46;;;;;;;6.30;1.70;;;;;;;;;;5040408;28;20063;-70
2022/04/01 07:52:13;;;;;;;6.90;1.40;;;;;;;;;;5044480;28;20391;-70
2022/04/01 07:54:42;;;;;;;9.02;1.63;;;;;;;;;;5042653;28;20059;-70
2022/04/01 07:57:09;;;;;;;8.85;1.52;;;;;;;;;;5048936;28;20055;-70
2022/04/01 07:59:37;;;;;;;5.22;1.30;;;;;;;;;;5043910;28;20530;-71
2022/04/01 08:02:06;;;;;;;5.90;1.20;;;;;;;;;;5047533;28;20107;-71
2022/04/01 08:04:35;;;;;;;6.57;1.30;;;;;;;;;;5059781;28;20076;-70
2022/04/01 08:07:02;;;;;;;6.28;1.42;;;;;;;;;;5046260;28;20056;-71
2022/04/01 08:09:30;;;;;;;6.65;1.38;;;;;;;;;;5046990;28;20057;-70
2022/04/01 08:11:57;;;;;;;11.73;1.65;;;;;;;;;;5043927;28;20087;-71
2022/04/01 08:14:24;;;;;;;6.75;1.10;;;;;;;;;;5048596;28;20056;-70
2022/04/01 08:16:51;;;;;;;9.00;1.33;;;;;;;;;;5046585;28;20061;-70
2022/04/01 08:19:19;;;;;;;12.52;1.65;;;;;;;;;;5047941;28;20067;-71
2022/04/01 08:21:49;;;;;;;9.52;1.60;;;;;;;;;;5040955;28;20541;-71
2022/04/01 08:24:16;;;;;;;7.22;1.15;;;;;;;;;;5042877;28;20107;-70
2022/04/01 08:26:44;;;;;;;5.82;1.35;;;;;;;;;;5041050;28;20099;-71
2022/04/01 08:29:11;;;;;;;11.73;1.30;;;;;;;;;;5043778;28;20055;-70
2022/04/01 08:31:39;;;;;;;7.53;1.38;;;;;;;;;;5044818;28;20040;-70
2022/04/01 08:34:06;;;;;;;6.25;1.33;;;;;;;;;;5040892;28;20057;-70
2022/04/01 08:36:33;;;;;;;5.82;1.83;;;;;;;;;;5045266;28;20112;-71
2022/04/01 08:39:02;;;;;;;9.48;1.30;;;;;;;;;;5043516;28;20134;-71
2022/04/01 08:41:29;;;;;;;5.30;0.90;;;;;;;;;;5039857;28;20038;-71
2022/04/01 08:43:56;;;;;;;4.97;1.50;;;;;;;;;;5039867;28;20152;-71
2022/04/01 08:46:24;;;;;;;6.78;1.25;;;;;;;;;;5050619;28;20072;-70
2022/04/01 08:48:52;;;;;;;6.55;1.35;;;;;;;;;;5046109;28;20056;-71
2022/04/01 08:51:19;;;;;;;6.82;1.60;;;;;;;;;;5048074;28;20049;-70
2022/04/01 08:53:47;;;;;;;11.27;1.45;;;;;;;;;;5045853;28;20273;-70
2022/04/01 08:56:16;;;;;;;7.15;1.83;;;;;;;;;;5048665;28;20049;-70
2022/04/01 08:58:43;;;;;;;6.45;1.50;;;;;;;;;;5048167;28;20060;-71
2022/04/01 09:01:11;;;;;;;9.27;2.05;;;;;;;;;;5048661;28;20499;-71
2022/04/01 09:03:39;;;;;;;6.70;1.27;;;;;;;;;;5041509;28;20088;-70
2022/04/01 09:06:07;;;;;;;5.28;1.20;;;;;;;;;;5049607;28;20063;-70
2022/04/01 09:08:37;;;;;;;9.75;1.60;;;;;;;;;;5054921;28;20063;-70
2022/04/01 09:11:06;;;;;;;5.90;1.30;;;;;;;;;;5053454;28;20222;-71
2022/04/01 09:13:35;;;;;;;7.68;1.48;;;;;;;;;;5053240;28;20052;-70
2022/04/01 09:16:03;;;;;;;6.15;1.15;;;;;;;;;;5051361;28;20049;-71
2022/04/01 09:18:34;;;;;;;5.38;1.05;;;;;;;;;;5047764;28;20087;-71
2022/04/01 09:21:01;;;;;;;7.30;1.10;;;;;;;;;;5053497;28;20094;-71
2022/04/01 09:23:29;;;;;;;4.30;0.90;;;;;;;;;;5051257;28;20063;-71
2022/04/01 09:25:56;;;;;;;5.15;0.85;;;;;;;;;;5057874;28;20048;-71
2022/04/01 09:28:29;;;;;;;4.28;1.17;;;;;;;;;;5059793;28;20101;-70
2022/04/01 09:31:06;;;;;;;6.90;1.20;;;;;;;;;;5054548;28;20102;-71
2022/04/01 09:33:34;;;;;;;4.32;1.10;;;;;;;;;;5051393;28;20114;-71
2022/04/01 09:36:06;;;;;;;8.77;1.23;;;;;;;;;;5065759;28;20495;-71
2022/04/01 09:38:34;;;;;;;8.48;1.83;;;;;;;;;;5047523;28;20495;-71
2022/04/01 09:41:03;;;;;;;6.15;1.40;;;;;;;;;;5048669;28;20049;-71
2022/04/01 09:43:32;;;;;;;7.45;1.38;;;;;;;;;;5054105;28;20121;-71
2022/04/01 09:46:06;;;;;;;6.35;1.48;;;;;;;;;;5045962;28;20048;-70
2022/04/01 09:48:42;;;;;;;5.38;1.42;;;;;;;;;;5047642;28;20076;-71
2022/04/01 09:51:11;;;;;;;6.55;1.50;;;;;;;;;;5051485;28;20049;-71
2022/04/01 09:53:38;;;;;;;6.22;1.42;;;;;;;;;;5050944;28;20055;-71
2022/04/01 09:56:06;;;;;;;6.88;1.30;;;;;;;;;;5050758;28;20080;-71
2022/04/01 09:58:33;;;;;;;7.43;1.70;;;;;;;;;;5053893;28;20072;-71
2022/04/01 10:01:02;;;;;;;4.40;1.58;;;;;;;;;;5052329;28;21685;-71
2022/04/01 10:03:31;;;;;;;3.42;1.17;;;;;;;;;;5048290;28;20049;-70
2022/04/01 10:05:58;;;;;;;7.85;1.40;;;;;;;;;;5049595;28;20057;-71
2022/04/01 10:08:27;;;;;;;7.15;1.70;;;;;;;;;;5053982;28;20052;-71
2022/04/01 10:10:55;;;;;;;4.82;1.40;;;;;;;;;;5053396;28;20270;-71
2022/04/01 10:13:24;;;;;;;7.18;1.75;;;;;;;;;;5047014;28;20059;-71
2022/04/01 10:15:53;;;;;;;2.90;1.13;;;;;;;;;;5050399;28;20045;-71
2022/04/01 10:18:21;;;;;;;9.07;1.20;;;;;;;;;;5067096;28;20045;-71
2022/04/01 10:20:50;;;;;;;4.28;1.17;;;;;;;;;;5052054;28;20056;-70
2022/04/01 10:23:17;;;;;;;5.75;1.27;;;;;;;;;;5052596;28;20056;-71
2022/04/01 10:25:48;;;;;;;6.70;1.77;;;;;;;;;;5056610;28;20054;-72
2022/04/01 10:28:15;;;;;;;9.85;0.90;;;;;;;;;;5055556;28;20067;-71
2022/04/01 10:30:51;;;;;;;5.78;1.20;;;;;;;;;;5053420;28;20040;-71
2022/04/01 10:33:22;;;;;;;4.32;1.15;;;;;;;;;;5063592;28;20059;-70
2022/04/01 10:35:51;;;;;;;5.95;1.13;;;;;;;;;;5057937;28;20091;-71
2022/04/01 10:38:19;;;;;;;7.53;1.40;;;;;;;;;;5060126;28;20080;-71
2022/04/01 10:40:49;;;;;;;5.18;1.27;;;;;;;;;;5058619;28;20055;-70
2022/04/01 10:43:18;;;;;;;6.15;1.00;;;;;;;;;;5058671;28;20075;-71
2022/04/01 10:45:57;;;;;;;5.15;1.27;;;;;;;;;;5056401;28;20067;-71
2022/04/01 10:54:01;;;;;;;6.70;1.23;;;;;;;;;;5055778;28;20052;-71
2022/04/01 10:56:30;;;;;;;4.72;1.10;;;;;;;;;;5056021;28;20051;-70
2022/04/01 10:59:08;;;;;;;5.65;1.20;;;;;;;;;;5055947;28;20052;-71
2022/04/01 11:01:36;;;;;;;7.15;1.30;;;;;;;;;;5056887;28;20060;-70
2022/04/01 11:04:03;;;;;;;5.50;1.10;;;;;;;;;;5059371;28;20052;-71
2022/04/01 11:06:32;;;;;;;4.38;1.10;;;;;;;;;;5057028;28;20540;-71
2022/04/01 11:09:02;;;;;;;5.53;1.13;;;;;;;;;;5060739;28;20057;-71
2022/04/01 11:11:29;;;;;;;9.02;1.40;;;;;;;;;;5061600;28;20044;-71
2022/04/01 11:14:05;;;;;;;6.38;1.13;;;;;;;;;;5059107;28;20071;-71
2022/04/01 11:16:46;;;;;;;5.57;1.30;;;;;;;;;;5058005;28;20113;-71
2022/04/01 11:19:17;;;;;;;7.22;1.20;;;;;;;;;;5055449;28;20087;-71
2022/04/01 11:21:47;;;;;;;6.65;1.55;;;;;;;;;;5066300;28;20044;-70
2022/04/01 11:24:24;;;;;;;8.98;1.30;;;;;;;;;;5060324;28;20063;-71
2022/04/01 11:26:51;;;;;;;7.80;1.48;;;;;;;;;;5058859;28;20110;-71
2022/04/01 11:29:19;;;;;;;9.35;1.42;;;;;;;;;;5063085;28;20053;-71
2022/04/01 11:31:46;;;;;;;5.72;1.17;;;;;;;;;;5056433;28;20037;-72
2022/04/01 11:34:14;;;;;;;6.95;1.20;;;;;;;;;;5056512;28;20130;-71
2022/04/01 11:36:41;;;;;;;4.88;1.48;;;;;;;;;;5055826;28;20132;-71
2022/04/01 11:39:16;;;;;;;7.40;1.20;;;;;;;;;;5056925;28;20442;-71
2022/04/01 11:41:51;;;;;;;6.50;1.80;;;;;;;;;;5047034;28;20044;-71
2022/04/01 11:44:19;;;;;;;8.70;1.00;;;;;;;;;;5054165;28;20079;-71
2022/04/01 11:46:58;;;;;;;7.00;1.25;;;;;;;;;;5053302;28;20054;-71
2022/04/01 11:49:29;;;;;;;7.07;1.17;;;;;;;;;;5051977;28;20398;-72
2022/04/01 11:51:57;;;;;;;6.13;1.38;;;;;;;;;;5052851;28;20048;-71
2022/04/01 11:54:26;;;;;;;10.13;1.55;;;;;;;;;;5055222;28;20083;-71
2022/04/01 11:56:54;;;;;;;5.90;1.10;;;;;;;;;;5061150;28;20063;-71
2022/04/01 11:59:21;;;;;;;3.03;1.10;;;;;;;;;;5056317;28;20046;-72
2022/04/01 12:01:58;;;;;;;5.57;0.90;;;;;;;;;;5054407;28;20472;-71
2022/04/01 12:04:30;;;;;;;3.92;1.00;;;;;;;;;;5057642;28;20048;-71
2022/04/01 12:09:46;;;;;;;7.35;1.33;;;;;;;;;;5055918;28;20059;-71
2022/04/01 12:12:14;;;;;;;3.05;1.00;;;;;;;;;;5058060;28;20052;-71
2022/04/01 12:14:41;;;;;;;9.07;1.23;;;;;;;;;;5056815;28;20049;-71
2022/04/01 12:17:10;;;;;;;3.95;1.33;;;;;;;;;;5059475;28;20074;-71
2022/04/01 12:19:37;;;;;;;5.32;0.98;;;;;;;;;;5060259;28;20058;-72
2022/04/01 12:22:05;;;;;;;3.83;1.10;;;;;;;;;;5056182;28;20048;-72
2022/04/01 12:24:33;;;;;;;3.95;1.08;;;;;;;;;;5056137;28;20059;-71
2022/04/01 12:27:04;;;;;;;10.25;1.40;;;;;;;;;;5063464;28;20491;-71
2022/04/01 12:29:32;;;;;;;7.90;1.20;;;;;;;;;;5061137;28;20443;-71
2022/04/01 12:32:02;;;;;;;4.25;1.00;;;;;;;;;;5062073;28;20064;-71
2022/04/01 12:34:30;;;;;;;2.88;0.90;;;;;;;;;;5060303;28;20048;-72
2022/04/01 12:37:00;;;;;;;3.25;0.90;;;;;;;;;;5059665;28;20054;-71
2022/04/01 12:39:28;;;;;;;3.28;0.90;;;;;;;;;;5062866;28;20052;-71
2022/04/01 12:41:56;;;;;;;8.25;1.20;;;;;;;;;;5057083;28;20048;-72
2022/04/01 12:44:25;;;;;;;3.63;0.85;;;;;;;;;;5063456;28;20109;-72
2022/04/01 12:46:53;;;;;;;11.00;0.93;;;;;;;;;;5063996;28;20262;-72
2022/04/01 12:49:21;;;;;;;5.80;1.25;;;;;;;;;;5062822;28;20063;-71
2022/04/01 12:51:53;;;;;;;4.88;0.98;;;;;;;;;;5060319;28;20174;-71
2022/04/01 12:54:25;;;;;;;5.00;0.90;;;;;;;;;;5061136;28;20084;-71
2022/04/01 12:56:53;;;;;;;4.70;2.00;;;;;;;;;;5062529;28;20056;-71
2022/04/01 12:59:21;;;;;;;5.55;1.25;;;;;;;;;;5064403;28;20045;-71
2022/04/01 13:01:58;;;;;;;6.68;1.23;;;;;;;;;;5064742;28;20052;-71
2022/04/01 13:04:25;;;;;;;6.28;1.38;;;;;;;;;;5059128;28;20074;-72
2022/04/01 13:07:12;;;;;;;3.80;0.85;;;;;;;;;;5060788;28;20056;-72
2022/04/01 13:09:50;;;;;;;5.15;0.93;;;;;;;;;;5074703;28;20048;-71
2022/04/01 13:12:20;;;;;;;5.88;1.30;;;;;;;;;;5064312;28;20403;-71
2022/04/01 13:14:55;;;;;;;8.75;1.10;;;;;;;;;;5063274;28;20114;-71
2022/04/01 13:17:24;;;;;;;7.00;1.00;;;;;;;;;;5065008;28;20052;-72
2022/04/01 13:19:51;;;;;;;5.18;0.90;;;;;;;;;;5060765;28;20067;-71
2022/04/01 13:22:18;;;;;;;6.97;1.17;;;;;;;;;;5054518;28;20118;-71
2022/04/01 13:24:47;;;;;;;4.72;1.20;;;;;;;;;;5060831;28;20057;-72
2022/04/01 13:27:15;;;;;;;2.78;0.75;;;;;;;;;;5058568;28;20091;-72
2022/04/01 13:29:43;;;;;;;2.03;0.90;;;;;;;;;;5062176;28;20399;-72
2022/04/01 13:32:11;;;;;;;4.13;1.33;;;;;;;;;;5063005;28;20056;-72
2022/04/01 13:34:40;;;;;;;3.80;0.70;;;;;;;;;;5057947;28;20045;-72
2022/04/01 13:37:08;;;;;;;3.67;0.85;;;;;;;;;;5058933;28;20071;-72
2022/04/01 13:39:35;;;;;;;4.50;0.93;;;;;;;;;;5058975;28;20052;-72
2022/04/01 13:42:03;;;;;;;3.08;0.80;;;;;;;;;;5060438;28;20465;-72
2022/04/01 13:44:31;;;;;;;3.60;1.20;;;;;;;;;;5065480;28;20060;-72
2022/04/01 13:46:59;;;;;;;5.93;1.13;;;;;;;;;;5062034;28;20126;-72
2022/04/01 13:49:26;;;;;;;6.20;1.35;;;;;;;;;;5054714;28;20095;-72
2022/04/01 13:51:55;;;;;;;4.63;1.35;;;;;;;;;;5058654;28;20060;-72
2022/04/01 13:54:22;;;;;;;6.18;0.98;;;;;;;;;;5063310;28;20119;-72
2022/04/01 13:56:50;;;;;;;6.38;0.88;;;;;;;;;;5060123;28;20049;-72
2022/04/01 13:59:18;;;;;;;2.80;0.80;;;;;;;;;;5058513;28;20052;-72
2022/04/01 14:01:45;;;;;;;6.97;1.20;;;;;;;;;;5060450;28;20037;-72
2022/04/01 14:04:12;;;;;;;5.50;1.10;;;;;;;;;;5061317;28;20052;-71
2022/04/01 14:06:40;;;;;;;5.70;1.17;;;;;;;;;;5055732;28;20053;-71
2022/04/01 14:09:09;;;;;;;7.00;1.25;;;;;;;;;;5059357;28;20105;-72
2022/04/01 14:11:36;;;;;;;5.80;1.45;;;;;;;;;;5060617;28;20444;-72
2022/04/01 14:14:05;;;;;;;3.40;1.05;;;;;;;;;;5060367;28;20060;-72
2022/04/01 14:16:32;;;;;;;3.78;1.00;;;;;;;;;;5061704;28;20132;-71
2022/04/01 14:19:01;;;;;;;3.60;1.10;;;;;;;;;;5062590;28;20061;-71
2022/04/01 14:21:28;;;;;;;3.08;1.00;;;;;;;;;;5061726;28;20044;-71
2022/04/01 14:23:55;;;;;;;4.18;1.10;;;;;;;;;;5056219;28;20044;-71
2022/04/01 14:26:24;;;;;;;4.43;1.20;;;;;;;;;;5060083;28;20057;-72
2022/04/01 14:28:52;;;;;;;3.20;0.80;;;;;;;;;;5056025;28;20132;-72
2022/04/01 14:31:19;;;;;;;7.63;1.13;;;;;;;;;;5058995;28;20052;-72
2022/04/01 14:33:47;;;;;;;8.75;1.20;;;;;;;;;;5063692;28;20064;-72
2022/04/01 14:36:14;;;;;;;3.20;1.15;;;;;;;;;;5063405;28;20105;-72
2022/04/01 14:38:42;;;;;;;2.97;1.00;;;;;;;;;;5061728;28;20048;-71
2022/04/01 14:41:11;;;;;;;3.95;1.38;;;;;;;;;;5055346;28;20739;-71
2022/04/01 14:43:39;;;;;;;3.80;1.33;;;;;;;;;;5065294;28;20044;-71
2022/04/01 14:46:08;;;;;;;2.72;1.40;;;;;;;;;;5059135;28;20049;-72
2022/04/01 14:48:35;;;;;;;6.85;1.25;;;;;;;;;;5059788;28;20079;-72
2022/04/01 14:51:03;;;;;;;3.40;1.27;;;;;;;;;;5062021;28;20064;-72
2022/04/01 14:53:31;;;;;;;5.65;1.70;;;;;;;;;;5060479;28;20055;-72
2022/04/01 14:55:58;;;;;;;6.15;1.38;;;;;;;;;;5061410;28;20067;-72
2022/04/01 14:58:26;;;;;;;6.18;1.30;;;;;;;;;;5055308;28;20049;-72
2022/04/01 15:00:54;;;;;;;5.53;1.65;;;;;;;;;;5061667;28;20044;-72
2022/04/01 15:03:21;;;;;;;3.35;1.15;;;;;;;;;;5061212;28;20114;-72
2022/04/01 15:05:48;;;;;;;4.40;1.50;;;;;;;;;;5060190;28;20048;-72
2022/04/01 15:08:16;;;;;;;4.85;1.25;;;;;;;;;;5061137;28;20117;-71
2022/04/01 15:10:43;;;;;;;4.82;1.30;;;;;;;;;;5058992;28;20117;-72